createdAt,value
2018-08-23T00:00:26.466Z,23.30
2018-08-23T00:02:53.511Z,23.30
2018-08-23T00:05:19.783Z,23.30
2018-08-23T00:07:46.095Z,23.30
2018-08-23T00:10:12.359Z,23.30
2018-08-23T00:12:38.708Z,23.20
2018-08-23T00:15:05.055Z,23.10
2018-08-23T00:17:31.353Z,23.00
2018-08-23T00:19:57.664Z,22.90
2018-08-23T00:22:23.981Z,22.80
2018-08-23T00:24:50.250Z,22.70
2018-08-23T00:27:16.634Z,22.60
2018-08-23T00:29:42.907Z,22.70
2018-08-23T00:32:09.165Z,22.70
2018-08-23T00:34:35.465Z,22.60
2018-08-23T00:37:01.780Z,22.70
2018-08-23T00:39:28.085Z,22.70
2018-08-23T00:41:54.442Z,22.60
2018-08-23T00:44:20.753Z,22.60
2018-08-23T00:46:47.074Z,22.60
2018-08-23T00:49:13.399Z,22.50
2018-08-23T00:51:39.669Z,22.40
2018-08-23T00:54:06.014Z,22.30
2018-08-23T00:56:32.241Z,22.30
2018-08-23T00:58:58.561Z,22.30
2018-08-23T01:01:24.869Z,22.30
2018-08-23T01:03:51.906Z,22.20
2018-08-23T01:06:18.953Z,22.10
2018-08-23T01:08:45.214Z,22.10
2018-08-23T01:11:15.079Z,22.10
2018-08-23T01:13:41.335Z,22.20
2018-08-23T01:16:07.642Z,22.20
2018-08-23T01:18:33.917Z,22.10
2018-08-23T01:21:00.223Z,22.10
2018-08-23T01:23:27.256Z,22.10
2018-08-23T01:25:53.506Z,22.10
2018-08-23T01:28:20.688Z,22.00
2018-08-23T01:30:47.070Z,22.00
2018-08-23T01:33:13.347Z,22.10
2018-08-23T01:35:39.634Z,22.10
2018-08-23T01:38:06.026Z,22.20
2018-08-23T01:40:32.313Z,22.10
2018-08-23T01:42:58.591Z,22.00
2018-08-23T01:45:24.893Z,21.90
2018-08-23T01:47:51.170Z,21.80
2018-08-23T01:50:17.476Z,21.60
2018-08-23T01:52:43.744Z,21.70
2018-08-23T01:55:10.068Z,21.60
2018-08-23T01:57:36.381Z,21.60
2018-08-23T02:00:02.694Z,21.70
2018-08-23T02:02:28.967Z,21.70
2018-08-23T02:04:55.209Z,21.80
2018-08-23T02:07:21.489Z,21.90
2018-08-23T02:09:47.728Z,21.80
2018-08-23T02:12:13.994Z,21.70
2018-08-23T02:14:40.262Z,21.80
2018-08-23T02:17:06.516Z,21.70
2018-08-23T02:19:32.833Z,21.80
2018-08-23T02:21:59.151Z,21.70
2018-08-23T02:24:25.453Z,21.70
2018-08-23T02:26:51.707Z,21.60
2018-08-23T02:29:17.985Z,21.40
2018-08-23T02:31:44.225Z,21.30
2018-08-23T02:34:10.501Z,21.40
2018-08-23T02:36:36.757Z,21.40
2018-08-23T02:39:03.072Z,21.50
2018-08-23T02:41:29.348Z,21.40
2018-08-23T02:43:55.614Z,21.40
2018-08-23T02:46:22.634Z,21.30
2018-08-23T02:48:48.897Z,21.20
2018-08-23T02:51:15.180Z,21.30
2018-08-23T02:53:41.444Z,21.30
2018-08-23T02:56:07.735Z,21.30
2018-08-23T02:58:34.030Z,21.30
2018-08-23T03:01:01.082Z,21.20
2018-08-23T03:03:27.386Z,21.20
2018-08-23T03:05:53.650Z,21.30
2018-08-23T03:08:20.681Z,21.50
2018-08-23T03:10:46.926Z,21.40
2018-08-23T03:13:13.934Z,21.40
2018-08-23T03:15:40.478Z,21.30
2018-08-23T03:18:06.786Z,21.30
2018-08-23T03:20:33.067Z,21.10
2018-08-23T03:23:00.056Z,20.90
2018-08-23T03:25:26.339Z,20.90
2018-08-23T03:27:52.628Z,20.80
2018-08-23T03:30:18.873Z,20.80
2018-08-23T03:32:45.224Z,20.90
2018-08-23T03:35:11.508Z,20.80
2018-08-23T03:37:40.159Z,20.90
2018-08-23T03:40:10.192Z,20.90
2018-08-23T03:42:38.672Z,20.90
2018-08-23T03:45:05.039Z,20.80
2018-08-23T03:47:31.361Z,20.80
2018-08-23T03:50:00.062Z,20.80
2018-08-23T03:52:28.373Z,20.90
2018-08-23T03:54:54.608Z,20.90
2018-08-23T03:57:20.889Z,20.90
2018-08-23T03:59:47.140Z,20.90
2018-08-23T04:02:13.441Z,20.90
2018-08-23T04:04:39.677Z,21.00
2018-08-23T04:07:05.961Z,20.90
2018-08-23T04:09:32.257Z,21.00
2018-08-23T04:11:58.530Z,20.90
2018-08-23T04:14:24.826Z,20.80
2018-08-23T04:16:51.406Z,20.70
2018-08-23T04:19:17.901Z,20.70
2018-08-23T04:21:44.157Z,20.70
2018-08-23T04:24:11.190Z,20.80
2018-08-23T04:26:37.542Z,20.70
2018-08-23T04:29:03.897Z,20.70
2018-08-23T04:31:30.625Z,20.70
2018-08-23T04:33:57.117Z,20.80
2018-08-23T04:36:23.474Z,20.80
2018-08-23T04:38:50.244Z,20.80
2018-08-23T04:41:16.615Z,20.90
2018-08-23T04:43:42.893Z,21.00
2018-08-23T04:46:10.538Z,20.90
2018-08-23T04:48:36.892Z,20.80
2018-08-23T04:51:03.972Z,20.80
2018-08-23T04:53:30.245Z,20.80
2018-08-23T04:55:56.530Z,20.90
2018-08-23T04:58:22.829Z,20.90
2018-08-23T05:00:49.882Z,20.80
2018-08-23T05:03:16.936Z,20.90
2018-08-23T05:05:44.227Z,20.90
2018-08-23T05:08:12.188Z,20.90
2018-08-23T05:10:38.559Z,20.90
2018-08-23T05:13:05.050Z,20.90
2018-08-23T05:15:31.357Z,20.90
2018-08-23T05:17:58.410Z,21.00
2018-08-23T05:20:25.449Z,21.20
2018-08-23T05:22:52.469Z,21.20
2018-08-23T05:25:18.809Z,21.30
2018-08-23T05:27:45.114Z,21.40
2018-08-23T05:30:11.398Z,21.50
2018-08-23T05:32:39.583Z,21.90
2018-08-23T05:35:07.613Z,21.80
2018-08-23T05:37:33.948Z,21.90
2018-08-23T05:40:00.417Z,21.80
2018-08-23T05:42:26.742Z,21.80
2018-08-23T05:44:53.769Z,21.90
2018-08-23T05:47:20.039Z,21.80
2018-08-23T05:49:46.362Z,21.90
2018-08-23T05:52:12.653Z,21.90
2018-08-23T05:54:38.941Z,22.00
2018-08-23T05:57:05.241Z,22.10
2018-08-23T05:59:32.238Z,22.20
2018-08-23T06:01:58.527Z,22.10
2018-08-23T06:04:25.536Z,22.40
2018-08-23T06:06:51.812Z,22.40
2018-08-23T06:09:18.822Z,22.80
2018-08-23T06:11:45.057Z,22.80
2018-08-23T06:14:11.317Z,22.90
2018-08-23T06:16:38.327Z,23.10
2018-08-23T06:19:04.635Z,23.00
2018-08-23T06:21:30.888Z,23.10
2018-08-23T06:23:57.161Z,23.20
2018-08-23T06:26:24.164Z,23.40
2018-08-23T06:28:50.433Z,23.40
2018-08-23T06:31:17.414Z,23.70
2018-08-23T06:33:43.757Z,23.70
2018-08-23T06:36:09.984Z,23.80
2018-08-23T06:38:36.307Z,23.90
2018-08-23T06:41:03.285Z,24.00
2018-08-23T06:43:29.573Z,24.00
2018-08-23T06:45:55.893Z,24.10
2018-08-23T06:48:22.113Z,24.20
2018-08-23T06:50:49.157Z,24.30
2018-08-23T06:53:15.401Z,24.30
2018-08-23T06:55:42.408Z,24.50
2018-08-23T06:58:08.646Z,24.50
2018-08-23T07:00:34.904Z,24.60
2018-08-23T07:03:01.892Z,24.80
2018-08-23T07:05:28.185Z,24.80
2018-08-23T07:07:55.144Z,25.00
2018-08-23T07:10:21.425Z,25.00
2018-08-23T07:12:47.683Z,25.20
2018-08-23T07:15:14.713Z,25.30
2018-08-23T07:17:41.140Z,25.30
2018-08-23T07:20:08.039Z,25.50
2018-08-23T07:22:34.291Z,25.50
2018-08-23T07:25:01.693Z,25.60
2018-08-23T07:27:27.992Z,25.70
2018-08-23T07:29:54.295Z,25.80
2018-08-23T07:32:20.521Z,26.00
2018-08-23T07:34:46.862Z,26.10
2018-08-23T07:37:13.116Z,26.40
2018-08-23T07:39:39.404Z,26.60
2018-08-23T07:42:05.685Z,26.70
2018-08-23T07:44:31.958Z,26.90
2018-08-23T07:46:58.193Z,27.10
2018-08-23T07:49:24.503Z,27.20
2018-08-23T07:51:50.742Z,27.50
2018-08-23T07:54:17.780Z,27.70
2018-08-23T07:56:44.768Z,27.80
2018-08-23T07:59:11.038Z,27.80
2018-08-23T08:01:37.309Z,27.90
2018-08-23T08:04:03.564Z,28.00
2018-08-23T08:06:29.844Z,28.10
2018-08-23T08:08:56.129Z,28.20
2018-08-23T08:11:22.410Z,28.30
2018-08-23T08:13:49.481Z,28.50
2018-08-23T08:16:15.797Z,28.50
2018-08-23T08:18:42.098Z,28.80
2018-08-23T08:21:08.390Z,29.30
2018-08-23T08:23:34.662Z,30.50
2018-08-23T08:26:00.909Z,32.00
2018-08-23T08:28:27.204Z,33.10
2018-08-23T08:30:53.493Z,34.60
2018-08-23T08:33:19.812Z,36.20
2018-08-23T08:35:46.109Z,36.60
2018-08-23T08:38:12.422Z,37.60
2018-08-23T08:40:38.695Z,37.10
2018-08-23T08:43:04.970Z,38.00
2018-08-23T08:45:31.263Z,38.20
2018-08-23T08:47:57.530Z,37.20
2018-08-23T08:50:23.839Z,36.60
2018-08-23T08:52:50.116Z,36.00
2018-08-23T08:55:16.405Z,35.80
2018-08-23T08:57:42.779Z,35.80
2018-08-23T09:00:08.985Z,35.90
2018-08-23T09:02:35.261Z,35.60
2018-08-23T09:05:01.517Z,35.60
2018-08-23T09:07:28.545Z,35.80
2018-08-23T09:09:55.674Z,35.60
2018-08-23T09:12:21.945Z,35.60
2018-08-23T09:14:48.939Z,35.50
2018-08-23T09:17:15.240Z,35.50
2018-08-23T09:19:41.527Z,35.10
2018-08-23T09:22:07.812Z,35.40
2018-08-23T09:24:36.555Z,34.80
2018-08-23T09:27:03.841Z,34.30
2018-08-23T09:29:30.309Z,33.90
2018-08-23T09:31:58.609Z,33.20
2018-08-23T09:34:24.873Z,32.80
2018-08-23T09:36:51.958Z,32.50
2018-08-23T09:39:18.902Z,33.20
2018-08-23T09:41:46.653Z,33.60
2018-08-23T09:44:12.929Z,34.20
2018-08-23T09:46:41.916Z,34.80
2018-08-23T09:49:10.900Z,35.60
2018-08-23T09:54:13.085Z,35.90
2018-08-23T09:56:40.215Z,36.10
2018-08-23T09:59:07.210Z,36.10
2018-08-23T10:01:34.432Z,36.30
2018-08-23T10:04:16.441Z,36.30
2018-08-23T10:06:42.789Z,36.30
2018-08-23T10:09:16.029Z,36.40
2018-08-23T10:12:00.042Z,36.30
2018-08-23T10:14:26.375Z,36.30
2018-08-23T10:16:52.680Z,36.30
2018-08-23T10:19:18.962Z,36.10
2018-08-23T10:21:45.232Z,36.10
2018-08-23T10:24:11.530Z,36.20
2018-08-23T10:26:37.837Z,36.10
2018-08-23T10:29:04.098Z,36.10
2018-08-23T10:31:30.362Z,36.20
2018-08-23T10:33:56.644Z,36.30
2018-08-23T10:36:22.900Z,36.50
2018-08-23T10:38:49.145Z,36.60
2018-08-23T10:41:15.411Z,36.40
2018-08-23T10:43:41.709Z,36.40
2018-08-23T10:46:07.951Z,36.30
2018-08-23T10:48:34.238Z,36.00
2018-08-23T10:51:00.533Z,36.50
2018-08-23T10:53:26.782Z,36.40
2018-08-23T10:55:53.071Z,36.60
2018-08-23T10:58:19.345Z,36.00
2018-08-23T11:00:45.598Z,35.50
2018-08-23T11:03:13.800Z,35.30
2018-08-23T11:05:40.826Z,35.50
2018-08-23T11:08:07.129Z,35.40
2018-08-23T11:10:48.319Z,35.90
2018-08-23T11:13:14.670Z,35.80
2018-08-23T11:15:42.581Z,35.70
2018-08-23T11:18:28.672Z,35.90
2018-08-23T11:20:54.918Z,35.80
2018-08-23T11:23:21.173Z,35.80
2018-08-23T11:25:47.462Z,36.30
2018-08-23T11:28:13.718Z,35.90
2018-08-23T11:30:40.725Z,35.20
2018-08-23T11:33:06.997Z,35.20
2018-08-23T11:35:33.268Z,34.70
2018-08-23T11:37:59.521Z,34.70
2018-08-23T11:40:25.775Z,34.60
2018-08-23T11:42:52.116Z,34.50
2018-08-23T11:45:19.026Z,34.80
2018-08-23T11:47:45.286Z,34.80
2018-08-23T11:50:12.330Z,34.90
2018-08-23T11:52:38.632Z,34.90
2018-08-23T11:55:04.889Z,34.90
2018-08-23T11:57:31.148Z,35.00
2018-08-23T11:59:57.993Z,34.60
2018-08-23T12:02:27.673Z,34.60
2018-08-23T12:04:55.352Z,34.70
2018-08-23T12:07:21.778Z,34.80
2018-08-23T12:09:51.572Z,34.60
2018-08-23T12:12:19.559Z,34.40
2018-08-23T12:14:45.858Z,34.40
2018-08-23T12:17:13.547Z,34.50
2018-08-23T12:19:39.880Z,34.60
2018-08-23T12:22:06.164Z,34.80
2018-08-23T12:24:32.415Z,35.00
2018-08-23T12:26:58.674Z,35.00
2018-08-23T12:29:25.695Z,35.30
2018-08-23T12:31:52.154Z,35.30
2018-08-23T12:34:19.259Z,35.10
2018-08-23T12:36:47.030Z,35.20
2018-08-23T12:39:36.339Z,35.40
2018-08-23T12:44:53.707Z,35.40
2018-08-23T12:47:21.034Z,35.20
2018-08-23T12:49:49.264Z,35.30
2018-08-23T12:52:17.006Z,35.50
2018-08-23T12:54:44.037Z,35.50
2018-08-23T12:57:12.793Z,35.30
2018-08-23T12:59:39.490Z,35.10
2018-08-23T13:02:06.642Z,35.30
2018-08-23T13:04:33.037Z,35.30
2018-08-23T13:06:59.536Z,35.30
2018-08-23T13:09:25.876Z,35.40
2018-08-23T13:11:52.815Z,35.50
2018-08-23T13:14:19.369Z,35.60
2018-08-23T13:16:47.945Z,35.70
2018-08-23T13:19:14.609Z,35.70
2018-08-23T13:21:42.224Z,35.70
2018-08-23T13:24:10.037Z,35.60
2018-08-23T13:26:37.166Z,35.60
2018-08-23T13:29:03.494Z,35.70
2018-08-23T13:31:30.984Z,35.80
2018-08-23T13:34:00.419Z,35.60
2018-08-23T13:36:28.123Z,35.80
2018-08-23T13:38:56.840Z,35.80
2018-08-23T13:41:23.145Z,35.80
2018-08-23T13:43:49.467Z,35.60
2018-08-23T13:46:15.681Z,35.40
2018-08-23T13:48:41.915Z,35.40
2018-08-23T13:51:08.284Z,35.40
2018-08-23T13:53:34.666Z,35.50
2018-08-23T13:56:01.690Z,35.40
2018-08-23T13:58:27.995Z,35.30
2018-08-23T14:00:54.261Z,35.40
2018-08-23T14:03:20.529Z,35.50
2018-08-23T14:05:46.769Z,35.60
2018-08-23T14:08:13.169Z,35.40
2018-08-23T14:10:39.425Z,35.30
2018-08-23T14:13:05.683Z,35.10
2018-08-23T14:15:31.978Z,35.10
2018-08-23T14:17:58.247Z,35.00
2018-08-23T14:20:24.514Z,35.10
2018-08-23T14:22:50.782Z,35.10
2018-08-23T14:25:17.017Z,35.00
2018-08-23T14:27:44.116Z,35.10
2018-08-23T14:30:10.385Z,35.30
2018-08-23T14:32:36.666Z,35.20
2018-08-23T14:35:03.076Z,35.30
2018-08-23T14:40:11.081Z,34.70
2018-08-23T14:42:40.123Z,34.40
2018-08-23T14:45:07.898Z,34.30
2018-08-23T14:47:53.892Z,34.20
2018-08-23T14:50:20.161Z,34.30
2018-08-23T14:52:46.452Z,34.30
2018-08-23T14:55:12.773Z,34.50
2018-08-23T14:57:39.055Z,34.40
2018-08-23T15:00:05.333Z,34.50
2018-08-23T15:02:33.777Z,34.40
2018-08-23T15:05:01.182Z,34.30
2018-08-23T15:07:28.190Z,33.80
2018-08-23T15:09:54.620Z,33.80
2018-08-23T15:12:22.240Z,34.10
2018-08-23T15:14:49.195Z,34.00
2018-08-23T15:17:15.450Z,34.20
2018-08-23T15:19:41.818Z,34.20
2018-08-23T15:22:08.316Z,34.30
2018-08-23T15:24:35.523Z,34.40
2018-08-23T15:27:01.951Z,33.90
2018-08-23T15:29:28.109Z,33.80
2018-08-23T15:31:54.374Z,33.70
2018-08-23T15:34:20.646Z,33.70
2018-08-23T15:36:46.929Z,33.60
2018-08-23T15:39:13.880Z,33.20
2018-08-23T15:41:40.863Z,33.20
2018-08-23T15:44:07.121Z,33.00
2018-08-23T15:46:33.441Z,33.00
2018-08-23T15:48:59.677Z,33.10
2018-08-23T15:51:25.925Z,33.10
2018-08-23T15:53:52.273Z,33.30
2018-08-23T15:56:19.899Z,33.20
2018-08-23T15:58:49.305Z,33.30
2018-08-23T16:01:15.577Z,33.30
2018-08-23T16:03:41.816Z,33.30
2018-08-23T16:06:08.084Z,33.30
2018-08-23T16:08:34.339Z,33.50
2018-08-23T16:11:00.853Z,33.50
2018-08-23T16:13:27.144Z,33.60
2018-08-23T16:15:53.477Z,33.40
2018-08-23T16:18:37.592Z,33.30
2018-08-23T16:21:03.934Z,33.30
2018-08-23T16:23:30.160Z,33.30
2018-08-23T16:25:56.846Z,33.20
2018-08-23T16:28:23.453Z,33.20
2018-08-23T16:30:50.453Z,33.10
2018-08-23T16:33:16.726Z,33.10
2018-08-23T16:35:43.066Z,33.00
2018-08-23T16:38:09.402Z,33.00
2018-08-23T16:40:35.749Z,32.90
2018-08-23T16:43:03.809Z,32.80
2018-08-23T16:45:30.169Z,32.80
2018-08-23T16:47:56.435Z,32.80
2018-08-23T16:50:22.725Z,32.80
2018-08-23T16:52:49.059Z,32.70
2018-08-23T16:55:16.110Z,32.60
2018-08-23T16:57:42.398Z,32.60
2018-08-23T17:00:08.982Z,32.50
2018-08-23T17:02:36.707Z,32.50
2018-08-23T17:05:03.861Z,32.40
2018-08-23T17:07:30.149Z,32.40
2018-08-23T17:09:56.459Z,32.30
2018-08-23T17:12:22.733Z,32.30
2018-08-23T17:14:49.717Z,32.00
2018-08-23T17:17:27.158Z,32.00
2018-08-23T17:19:53.420Z,31.90
2018-08-23T17:22:19.689Z,31.70
2018-08-23T17:24:46.165Z,31.60
2018-08-23T17:27:12.437Z,31.50
2018-08-23T17:29:38.715Z,31.40
2018-08-23T17:32:04.970Z,31.30
2018-08-23T17:34:31.276Z,31.20
2018-08-23T17:36:57.694Z,31.20
2018-08-23T17:39:23.962Z,31.10
2018-08-23T17:41:50.941Z,30.90
2018-08-23T17:44:18.131Z,30.80
2018-08-23T17:46:46.078Z,30.70
2018-08-23T17:49:12.394Z,30.60
2018-08-23T17:51:38.658Z,30.50
2018-08-23T17:54:04.967Z,30.50
2018-08-23T17:56:32.233Z,30.40
2018-08-23T17:58:58.526Z,30.30
2018-08-23T18:01:24.993Z,30.10
2018-08-23T18:03:51.635Z,30.20
2018-08-23T18:06:17.921Z,30.10
2018-08-23T18:08:44.967Z,29.90
2018-08-23T18:11:12.168Z,29.90
2018-08-23T18:13:38.601Z,29.80
2018-08-23T18:16:05.392Z,29.70
2018-08-23T18:18:32.409Z,29.50
2018-08-23T18:20:59.416Z,29.50
2018-08-23T18:23:25.721Z,29.40
2018-08-23T18:25:52.709Z,29.30
2018-08-23T18:28:19.483Z,29.20
2018-08-23T18:30:45.771Z,29.20
2018-08-23T18:33:12.061Z,29.10
2018-08-23T18:35:40.036Z,28.80
2018-08-23T18:38:06.298Z,28.80
2018-08-23T18:40:33.350Z,28.60
2018-08-23T18:43:02.999Z,28.40
2018-08-23T18:45:30.556Z,28.30
2018-08-23T18:47:57.926Z,28.30
2018-08-23T18:50:24.323Z,28.30
2018-08-23T18:52:51.331Z,28.40
2018-08-23T18:55:17.779Z,28.40
2018-08-23T18:57:44.388Z,28.30
2018-08-23T19:00:10.947Z,28.40
2018-08-23T19:02:37.233Z,28.40
2018-08-23T19:05:04.193Z,28.30
2018-08-23T19:07:31.817Z,28.00
2018-08-23T19:10:01.176Z,27.90
2018-08-23T19:12:30.015Z,27.80
2018-08-23T19:14:56.614Z,27.60
2018-08-23T19:17:29.401Z,27.50
2018-08-23T19:19:58.135Z,27.30
2018-08-23T19:22:24.665Z,27.20
2018-08-23T19:24:53.189Z,27.10
2018-08-23T19:27:19.764Z,27.10
2018-08-23T19:29:46.761Z,27.00
2018-08-23T19:32:14.415Z,27.00
2018-08-23T19:34:41.057Z,26.90
2018-08-23T19:37:07.643Z,26.80
2018-08-23T19:39:33.908Z,26.70
2018-08-23T19:42:00.645Z,26.70
2018-08-23T19:44:27.109Z,26.60
2018-08-23T19:47:09.030Z,26.40
2018-08-23T19:49:44.794Z,26.10
2018-08-23T19:52:11.089Z,26.20
2018-08-23T19:54:37.442Z,25.90
2018-08-23T19:57:04.505Z,25.60
2018-08-23T19:59:31.546Z,25.60
2018-08-23T20:01:58.574Z,25.50
2018-08-23T20:04:25.093Z,25.40
2018-08-23T20:06:52.685Z,25.50
2018-08-23T20:09:19.462Z,25.40
2018-08-23T20:11:45.811Z,25.40
2018-08-23T20:14:12.159Z,25.30
2018-08-23T20:16:38.705Z,25.40
2018-08-23T20:19:05.136Z,25.30
2018-08-23T20:21:31.553Z,25.40
2018-08-23T20:23:57.886Z,25.40
2018-08-23T20:26:24.791Z,25.40
2018-08-23T20:28:51.744Z,25.40
2018-08-23T20:31:19.433Z,25.20
2018-08-23T20:33:46.509Z,25.20
2018-08-23T20:36:13.648Z,25.20
2018-08-23T20:38:39.930Z,25.10
2018-08-23T20:41:07.057Z,25.00
2018-08-23T20:43:33.542Z,25.00
2018-08-23T20:45:59.908Z,25.00
2018-08-23T20:48:27.001Z,25.00
2018-08-23T20:50:54.799Z,24.90
2018-08-23T20:53:22.428Z,24.80
2018-08-23T20:55:48.917Z,24.80
2018-08-23T20:58:15.937Z,24.80
2018-08-23T21:00:43.039Z,25.00
2018-08-23T21:03:10.726Z,24.90
2018-08-23T21:05:41.125Z,24.80
2018-08-23T21:08:10.459Z,24.80
2018-08-23T21:10:37.370Z,24.80
2018-08-23T21:13:04.369Z,24.70
2018-08-23T21:15:31.368Z,24.80
2018-08-23T21:17:59.525Z,24.80
2018-08-23T21:20:34.489Z,24.80
2018-08-23T21:23:01.637Z,24.70
2018-08-23T21:25:27.994Z,24.80
2018-08-23T21:27:54.424Z,24.80
2018-08-23T21:30:21.337Z,24.80
2018-08-23T21:32:48.313Z,24.70
2018-08-23T21:35:16.238Z,24.80
2018-08-23T21:37:43.381Z,24.70
2018-08-23T21:40:11.627Z,24.60
2018-08-23T21:42:38.438Z,24.60
2018-08-23T21:45:05.001Z,24.70
2018-08-23T21:47:32.096Z,24.70
2018-08-23T21:49:59.402Z,24.80
2018-08-23T21:52:25.718Z,24.80
2018-08-23T21:54:52.115Z,24.80
2018-08-23T21:57:25.024Z,24.80
2018-08-23T21:59:51.558Z,24.70
2018-08-23T22:02:18.129Z,24.60
2018-08-23T22:04:44.555Z,24.50
2018-08-23T22:07:10.913Z,24.50
2018-08-23T22:09:37.933Z,24.40
2018-08-23T22:12:04.907Z,24.40
2018-08-23T22:14:32.556Z,24.40
2018-08-23T22:17:00.092Z,24.30
2018-08-23T22:19:27.329Z,24.20
2018-08-23T22:21:53.983Z,24.20
2018-08-23T22:24:20.437Z,24.10
2018-08-23T22:26:47.634Z,24.00
2018-08-23T22:29:15.368Z,23.90
2018-08-23T22:31:42.968Z,23.80
2018-08-23T22:34:09.280Z,23.70
2018-08-23T22:36:35.597Z,23.80
2018-08-23T22:39:01.867Z,23.80
2018-08-23T22:41:28.160Z,23.70
2018-08-23T22:43:54.455Z,23.70
2018-08-23T22:46:20.876Z,23.70
2018-08-23T22:48:47.232Z,23.60
2018-08-23T22:51:14.385Z,23.50
2018-08-23T22:53:40.726Z,23.50
2018-08-23T22:56:07.035Z,23.60
2018-08-23T22:58:34.080Z,23.60
2018-08-23T23:01:01.129Z,23.60
2018-08-23T23:03:27.857Z,23.60
2018-08-23T23:05:54.114Z,23.50
2018-08-23T23:08:20.433Z,23.50
2018-08-23T23:10:47.422Z,23.40
2018-08-23T23:13:13.699Z,23.40
2018-08-23T23:15:40.710Z,23.30
2018-08-23T23:18:07.339Z,23.30
2018-08-23T23:20:33.577Z,23.30
2018-08-23T23:22:59.873Z,23.30
2018-08-23T23:25:26.161Z,23.30
2018-08-23T23:27:52.388Z,23.20
2018-08-23T23:30:18.665Z,23.20
2018-08-23T23:32:44.953Z,23.10
2018-08-23T23:35:11.217Z,23.10
2018-08-23T23:37:38.218Z,23.00
2018-08-23T23:40:04.518Z,23.10
2018-08-23T23:42:30.792Z,23.00
2018-08-23T23:44:57.040Z,23.00
2018-08-23T23:47:23.300Z,23.00
2018-08-23T23:49:49.572Z,22.90
2018-08-23T23:52:15.841Z,22.90
2018-08-23T23:54:42.881Z,22.80
2018-08-23T23:57:09.869Z,22.70
2018-08-23T23:59:36.118Z,22.70
